createdAt,value
2023-05-21T00:00:24.359Z,99666.84
2023-05-21T00:03:15.083Z,99673.83
2023-05-21T00:06:04.029Z,99660.73
2023-05-21T00:08:51.981Z,99664.23
2023-05-21T00:11:25.500Z,99671.13
2023-05-21T00:14:12.898Z,99663.36
2023-05-21T00:16:47.218Z,99661.58
2023-05-21T00:19:35.037Z,99659.05
2023-05-21T00:22:09.467Z,99655.45
2023-05-21T00:24:42.861Z,99658.05
2023-05-21T00:27:30.606Z,99658.14
2023-05-21T00:30:05.071Z,99664.19
2023-05-21T00:32:40.290Z,99651.98
2023-05-21T00:35:14.006Z,99660.73
2023-05-21T00:38:03.055Z,99645.97
2023-05-21T00:40:37.364Z,99654.61
2023-05-21T00:43:10.960Z,99655.52
2023-05-21T00:45:59.574Z,99650.39
2023-05-21T00:48:35.286Z,99655.52
2023-05-21T00:51:09.160Z,99649.42
2023-05-21T00:53:57.870Z,99651.30
2023-05-21T00:56:45.904Z,99650.45
2023-05-21T00:59:19.687Z,99648.63
2023-05-21T01:02:09.607Z,99644.31
2023-05-21T01:04:43.172Z,99657.27
2023-05-21T01:07:30.832Z,99655.52
2023-05-21T01:10:18.845Z,99651.99
2023-05-21T01:12:57.565Z,99656.27
2023-05-21T01:15:46.459Z,99652.88
2023-05-21T01:18:35.428Z,99650.27
2023-05-21T01:21:09.934Z,99651.91
2023-05-21T01:23:59.133Z,99651.13
2023-05-21T01:26:33.876Z,99656.30
2023-05-21T01:29:21.965Z,99656.44
2023-05-21T01:32:00.276Z,99661.65
2023-05-21T01:34:52.004Z,99657.41
2023-05-21T01:37:43.836Z,99656.56
2023-05-21T01:40:20.205Z,99658.26
2023-05-21T01:43:09.778Z,99664.47
2023-05-21T01:45:45.486Z,99662.64
2023-05-21T01:48:33.933Z,99651.43
2023-05-21T01:51:08.582Z,99655.71
2023-05-21T01:53:42.235Z,99657.48
2023-05-21T01:56:30.063Z,99652.42
2023-05-21T01:59:18.519Z,99656.77
2023-05-21T02:01:52.237Z,99656.67
2023-05-21T02:04:41.349Z,99661.19
2023-05-21T02:07:15.231Z,99660.20
2023-05-21T02:10:03.378Z,99656.80
2023-05-21T02:12:36.947Z,99658.42
2023-05-21T02:15:25.186Z,99658.52
2023-05-21T02:18:14.550Z,99646.28
2023-05-21T02:21:02.363Z,99648.09
2023-05-21T02:23:36.226Z,99652.42
2023-05-21T02:26:23.850Z,99642.91
2023-05-21T02:28:57.994Z,99655.05
2023-05-21T02:31:45.913Z,99648.14
2023-05-21T02:34:35.150Z,99645.52
2023-05-21T02:37:09.855Z,99637.57
2023-05-21T02:39:57.869Z,99653.42
2023-05-21T02:42:31.726Z,99655.09
2023-05-21T02:45:19.407Z,99656.05
2023-05-21T02:47:52.963Z,99654.25
2023-05-21T02:50:40.857Z,99652.56
2023-05-21T02:53:14.475Z,99661.23
2023-05-21T02:56:02.220Z,99656.91
2023-05-21T02:58:36.090Z,99662.10
2023-05-21T03:01:23.842Z,99651.70
2023-05-21T03:03:57.276Z,99663.86
2023-05-21T03:06:46.664Z,99661.33
2023-05-21T03:09:21.949Z,99653.42
2023-05-21T03:11:56.840Z,99660.43
2023-05-21T03:14:30.235Z,99658.70
2023-05-21T03:17:19.011Z,99664.92
2023-05-21T03:19:52.593Z,99665.75
2023-05-21T03:22:40.306Z,99671.06
2023-05-21T03:25:28.483Z,99658.85
2023-05-21T03:28:02.148Z,99662.30
2023-05-21T03:30:52.267Z,99664.09
2023-05-21T03:33:42.699Z,99662.27
2023-05-21T03:36:38.271Z,99664.93
2023-05-21T03:39:12.642Z,99665.75
2023-05-21T03:41:46.580Z,99672.83
2023-05-21T03:44:35.666Z,99668.51
2023-05-21T03:47:27.662Z,99672.89
2023-05-21T03:50:03.424Z,99671.06
2023-05-21T03:52:51.214Z,99683.41
2023-05-21T03:55:24.927Z,99673.75
2023-05-21T03:58:12.218Z,99669.45
2023-05-21T04:00:46.245Z,99683.41
2023-05-21T04:03:37.256Z,99667.72
2023-05-21T04:06:25.840Z,99677.30
2023-05-21T04:09:13.438Z,99679.92
2023-05-21T04:12:00.969Z,99675.53
2023-05-21T04:14:35.504Z,99678.13
2023-05-21T04:17:23.156Z,99667.73
2023-05-21T04:20:13.760Z,99668.64
2023-05-21T04:22:47.329Z,99673.90
2023-05-21T04:25:35.299Z,99676.55
2023-05-21T04:28:24.341Z,99665.20
2023-05-21T04:30:57.984Z,99671.30
2023-05-21T04:33:31.562Z,99669.58
2023-05-21T04:36:19.341Z,99669.56
2023-05-21T04:38:53.618Z,99670.44
2023-05-21T04:41:41.760Z,99671.31
2023-05-21T04:44:15.658Z,99671.33
2023-05-21T04:47:04.453Z,99673.07
2023-05-21T04:49:37.830Z,99671.30
2023-05-21T04:52:11.525Z,99672.17
2023-05-21T04:54:59.140Z,99673.91
2023-05-21T04:57:35.286Z,99672.18
2023-05-21T05:00:24.767Z,99667.77
2023-05-21T05:03:12.763Z,99676.54
2023-05-21T05:06:00.536Z,99667.80
2023-05-21T05:08:48.531Z,99681.82
2023-05-21T05:11:22.482Z,99683.56
2023-05-21T05:14:10.579Z,99687.05
2023-05-21T05:16:44.187Z,99684.40
2023-05-21T05:19:32.096Z,99685.31
2023-05-21T05:22:05.939Z,99684.44
2023-05-21T05:24:54.149Z,99684.44
2023-05-21T05:27:27.892Z,99675.70
2023-05-21T05:30:15.854Z,99690.55
2023-05-21T05:32:49.386Z,99698.45
2023-05-21T05:35:37.210Z,99687.05
2023-05-21T05:38:10.597Z,99690.55
2023-05-21T05:40:58.479Z,99695.80
2023-05-21T05:43:32.260Z,99707.20
2023-05-21T05:46:20.529Z,99696.64
2023-05-21T05:48:54.061Z,99702.81
2023-05-21T05:51:42.500Z,99694.88
2023-05-21T05:54:30.219Z,99700.95
2023-05-21T05:57:17.940Z,99693.95
2023-05-21T05:59:51.626Z,99694.00
2023-05-21T06:02:25.240Z,99701.02
2023-05-21T06:04:59.570Z,99705.44
2023-05-21T06:07:47.216Z,99706.30
2023-05-21T06:10:21.382Z,99706.31
2023-05-21T06:12:54.803Z,99709.85
2023-05-21T06:15:28.349Z,99711.59
2023-05-21T06:18:22.142Z,99703.72
2023-05-21T06:20:55.682Z,99707.18
2023-05-21T06:23:29.394Z,99709.81
2023-05-21T06:26:18.783Z,99707.20
2023-05-21T06:29:07.237Z,99703.69
2023-05-21T06:31:55.095Z,99708.93
2023-05-21T06:34:28.757Z,99708.04
2023-05-21T06:37:17.847Z,99707.12
2023-05-21T06:39:51.408Z,99704.44
2023-05-21T06:42:25.054Z,99701.50
2023-05-21T06:45:15.400Z,99694.66
2023-05-21T06:47:50.595Z,99696.64
2023-05-21T06:50:38.647Z,99692.61
2023-05-21T06:53:14.011Z,99693.58
2023-05-21T06:56:01.918Z,99693.25
2023-05-21T06:58:49.022Z,99696.80
2023-05-21T07:01:23.400Z,99694.77
2023-05-21T07:03:56.836Z,99686.54
2023-05-21T07:06:45.505Z,99692.13
2023-05-21T07:09:19.529Z,99700.74
2023-05-21T07:12:08.550Z,99696.59
2023-05-21T07:14:41.910Z,99702.10
2023-05-21T07:17:29.760Z,99695.84
2023-05-21T07:20:04.569Z,99701.25
2023-05-21T07:22:39.698Z,99698.10
2023-05-21T07:25:28.221Z,99692.75
2023-05-21T07:28:01.524Z,99696.61
2023-05-21T07:30:49.491Z,99692.15
2023-05-21T07:33:39.058Z,99689.59
2023-05-21T07:36:28.608Z,99684.90
2023-05-21T07:39:01.913Z,99690.53
2023-05-21T07:41:35.361Z,99691.40
2023-05-21T07:44:25.420Z,99694.33
2023-05-21T07:47:13.154Z,99690.55
2023-05-21T07:49:46.851Z,99688.77
2023-05-21T07:52:20.616Z,99691.06
2023-05-21T07:54:54.170Z,99697.94
2023-05-21T07:57:28.285Z,99688.69
2023-05-21T08:00:19.169Z,99691.56
2023-05-21T08:02:57.475Z,99698.63
2023-05-21T08:05:48.014Z,99696.91
2023-05-21T08:08:36.662Z,99694.56
2023-05-21T08:11:10.326Z,99696.77
2023-05-21T08:13:43.917Z,99687.42
2023-05-21T08:16:17.709Z,99680.22
2023-05-21T08:19:05.556Z,99676.77
2023-05-21T08:21:53.319Z,99675.59
2023-05-21T08:24:28.717Z,99681.00
2023-05-21T08:27:17.058Z,99675.79
2023-05-21T08:29:50.948Z,99671.77
2023-05-21T08:32:24.558Z,99657.65
2023-05-21T08:35:13.324Z,99665.42
2023-05-21T08:38:02.768Z,99671.72
2023-05-21T08:40:37.981Z,99673.63
2023-05-21T08:43:13.055Z,99682.63
2023-05-21T08:46:05.129Z,99683.30
2023-05-21T08:48:41.575Z,99679.54
2023-05-21T08:51:15.286Z,99684.53
2023-05-21T08:54:05.973Z,99671.80
2023-05-21T08:56:56.579Z,99667.98
2023-05-21T08:59:30.268Z,99679.06
2023-05-21T09:02:05.503Z,99678.16
2023-05-21T09:04:57.513Z,99678.84
2023-05-21T09:07:32.567Z,99672.22
2023-05-21T09:10:24.557Z,99671.08
2023-05-21T09:12:58.397Z,99677.74
2023-05-21T09:15:47.449Z,99679.21
2023-05-21T09:18:35.685Z,99674.95
2023-05-21T09:21:27.502Z,99680.55
2023-05-21T09:24:24.343Z,99684.76
2023-05-21T09:27:12.387Z,99675.86
2023-05-21T09:30:00.284Z,99670.24
2023-05-21T09:32:35.697Z,99680.41
2023-05-21T09:35:23.646Z,99686.27
2023-05-21T09:37:58.607Z,99663.35
2023-05-21T09:40:47.906Z,99678.15
2023-05-21T09:43:23.719Z,99690.08
2023-05-21T09:46:11.944Z,99684.80
2023-05-21T09:48:45.928Z,99678.72
2023-05-21T09:51:37.034Z,99685.06
2023-05-21T09:54:12.054Z,99681.39
2023-05-21T09:57:01.386Z,99682.63
2023-05-21T09:59:41.349Z,99680.95
2023-05-21T10:02:20.912Z,99671.80
2023-05-21T10:05:11.852Z,99672.06
2023-05-21T10:07:48.406Z,99688.41
2023-05-21T10:10:23.343Z,99674.25
2023-05-21T10:13:13.362Z,99670.30
2023-05-21T10:16:03.429Z,99675.11
2023-05-21T10:18:53.621Z,99673.59
2023-05-21T10:21:42.325Z,99678.47
2023-05-21T10:24:16.886Z,99665.07
2023-05-21T10:27:06.157Z,99678.30
2023-05-21T10:29:55.085Z,99673.05
2023-05-21T10:32:31.014Z,99688.78
2023-05-21T10:35:19.148Z,99681.03
2023-05-21T10:38:08.130Z,99681.67
2023-05-21T10:40:57.178Z,99677.00
2023-05-21T10:43:48.662Z,99685.88
2023-05-21T10:46:49.966Z,99686.80
2023-05-21T10:49:55.821Z,99690.71
2023-05-21T10:52:55.129Z,99684.17
2023-05-21T10:55:40.387Z,99682.34
2023-05-21T10:59:28.677Z,99680.00
2023-05-21T11:02:22.942Z,99677.02
2023-05-21T11:05:04.087Z,99682.42
2023-05-21T11:07:57.237Z,99665.93
2023-05-21T11:10:44.792Z,99667.30
2023-05-21T11:13:19.871Z,99656.80
2023-05-21T11:16:18.291Z,99657.81
2023-05-21T11:19:04.557Z,99660.54
2023-05-21T11:21:56.156Z,99661.05
2023-05-21T11:24:30.950Z,99656.10
2023-05-21T11:27:35.694Z,99663.20
2023-05-21T11:30:23.369Z,99675.31
2023-05-21T11:33:23.084Z,99676.55
2023-05-21T11:36:01.261Z,99684.50
2023-05-21T11:38:34.798Z,99675.05
2023-05-21T11:41:23.677Z,99667.22
2023-05-21T11:44:04.154Z,99668.30
2023-05-21T11:46:52.860Z,99671.42
2023-05-21T11:49:29.134Z,99672.14
2023-05-21T11:52:03.279Z,99667.22
2023-05-21T11:54:41.759Z,99670.92
2023-05-21T11:57:31.383Z,99660.88
2023-05-21T12:00:09.344Z,99668.66
2023-05-21T12:03:18.322Z,99671.73
2023-05-21T12:05:54.076Z,99677.81
2023-05-21T12:08:42.227Z,99675.47
2023-05-21T12:11:15.788Z,99686.35
2023-05-21T12:13:51.014Z,99682.13
2023-05-21T12:16:38.697Z,99683.84
2023-05-21T12:19:12.527Z,99692.23
2023-05-21T12:21:46.819Z,99693.19
2023-05-21T12:24:20.344Z,99694.02
2023-05-21T12:27:10.354Z,99693.84
2023-05-21T12:29:45.817Z,99702.05
2023-05-21T12:32:19.709Z,99695.77
2023-05-21T12:35:08.717Z,99699.30
2023-05-21T12:37:42.190Z,99704.09
2023-05-21T12:40:39.829Z,99701.16
2023-05-21T12:43:13.941Z,99706.34
2023-05-21T12:46:01.617Z,99697.42
2023-05-21T12:48:35.007Z,99696.03
2023-05-21T12:51:23.069Z,99689.59
2023-05-21T12:54:16.639Z,99682.16
2023-05-21T12:56:50.726Z,99681.32
2023-05-21T12:59:51.530Z,99685.16
2023-05-21T13:02:26.577Z,99672.89
2023-05-21T13:05:01.518Z,99679.27
2023-05-21T13:07:50.964Z,99680.64
2023-05-21T13:10:38.853Z,99675.59
2023-05-21T13:13:12.564Z,99680.25
2023-05-21T13:16:06.732Z,99678.08
2023-05-21T13:18:39.985Z,99684.16
2023-05-21T13:21:27.799Z,99679.31
2023-05-21T13:24:01.068Z,99683.59
2023-05-21T13:26:50.507Z,99685.73
2023-05-21T13:29:24.023Z,99684.11
2023-05-21T13:32:12.086Z,99688.27
2023-05-21T13:34:45.586Z,99688.08
2023-05-21T13:37:33.492Z,99681.81
2023-05-21T13:40:11.087Z,99675.77
2023-05-21T13:42:59.987Z,99685.81
2023-05-21T13:45:34.016Z,99685.08
2023-05-21T13:48:21.768Z,99704.22
2023-05-21T13:50:55.266Z,99694.02
2023-05-21T13:53:28.933Z,99688.91
2023-05-21T13:56:16.498Z,99694.87
2023-05-21T13:58:50.048Z,99702.65
2023-05-21T14:01:37.800Z,99690.82
2023-05-21T14:04:25.656Z,99679.17
2023-05-21T14:07:13.757Z,99670.18
2023-05-21T14:10:01.670Z,99685.91
2023-05-21T14:12:48.995Z,99677.84
2023-05-21T14:15:22.458Z,99685.91
2023-05-21T14:18:12.477Z,99664.97
2023-05-21T14:20:45.722Z,99669.53
2023-05-21T14:23:19.087Z,99679.74
2023-05-21T14:26:07.370Z,99668.41
2023-05-21T14:29:21.458Z,99670.36
2023-05-21T14:32:10.840Z,99670.54
2023-05-21T14:34:44.684Z,99663.58
2023-05-21T14:37:32.192Z,99670.13
2023-05-21T14:40:07.960Z,99678.11
2023-05-21T14:42:56.319Z,99676.66
2023-05-21T14:45:44.990Z,99679.73
2023-05-21T14:48:20.876Z,99676.73
2023-05-21T14:51:09.520Z,99676.15
2023-05-21T14:53:43.095Z,99681.30
2023-05-21T14:56:30.735Z,99668.77
2023-05-21T14:59:04.143Z,99665.87
2023-05-21T15:01:51.721Z,99665.48
2023-05-21T15:04:25.385Z,99667.19
2023-05-21T15:07:13.005Z,99669.27
2023-05-21T15:09:46.674Z,99663.53
2023-05-21T15:12:19.708Z,99671.63
2023-05-21T15:15:09.427Z,99671.43
2023-05-21T15:17:58.252Z,99662.94
2023-05-21T15:20:31.778Z,99667.77
2023-05-21T15:23:19.519Z,99664.09
2023-05-21T15:25:53.161Z,99673.28
2023-05-21T15:28:40.669Z,99654.55
2023-05-21T15:31:14.008Z,99666.49
2023-05-21T15:33:47.752Z,99669.56
2023-05-21T15:36:36.725Z,99662.86
2023-05-21T15:39:10.600Z,99679.53
2023-05-21T15:41:58.302Z,99668.23
2023-05-21T15:44:31.538Z,99676.41
2023-05-21T15:47:19.244Z,99671.81
2023-05-21T15:50:08.093Z,99683.41
2023-05-21T15:52:42.647Z,99684.95
2023-05-21T15:55:16.239Z,99682.71
2023-05-21T15:58:05.628Z,99681.89
2023-05-21T16:00:39.314Z,99682.17
2023-05-21T16:03:14.795Z,99686.81
2023-05-21T16:06:02.410Z,99690.25
2023-05-21T16:08:36.011Z,99680.72
2023-05-21T16:11:24.169Z,99690.28
2023-05-21T16:14:11.994Z,99689.45
2023-05-21T16:16:45.617Z,99689.66
2023-05-21T16:19:33.870Z,99688.53
2023-05-21T16:22:09.308Z,99699.48
2023-05-21T16:24:56.841Z,99695.03
2023-05-21T16:27:44.446Z,99689.80
2023-05-21T16:30:18.026Z,99694.25
2023-05-21T16:33:05.987Z,99690.55
2023-05-21T16:35:54.403Z,99694.94
2023-05-21T16:38:27.822Z,99701.31
2023-05-21T16:41:15.746Z,99688.83
2023-05-21T16:43:49.007Z,99696.94
2023-05-21T16:46:36.766Z,99695.05
2023-05-21T16:49:10.045Z,99691.77
2023-05-21T16:51:57.743Z,99701.42
2023-05-21T16:54:47.730Z,99698.83
2023-05-21T16:57:35.816Z,99706.80
2023-05-21T17:00:24.038Z,99706.78
2023-05-21T17:03:11.970Z,99710.36
2023-05-21T17:05:45.550Z,99707.10
2023-05-21T17:08:33.153Z,99695.45
2023-05-21T17:11:07.343Z,99702.72
2023-05-21T17:13:41.137Z,99705.56
2023-05-21T17:16:28.742Z,99705.53
2023-05-21T17:19:02.905Z,99708.28
2023-05-21T17:21:36.347Z,99704.00
2023-05-21T17:24:10.854Z,99705.04
2023-05-21T17:26:58.529Z,99694.47
2023-05-21T17:29:32.517Z,99707.86
2023-05-21T17:32:20.995Z,99707.83
2023-05-21T17:34:54.526Z,99703.56
2023-05-21T17:37:42.269Z,99712.25
2023-05-21T17:40:18.397Z,99717.64
2023-05-21T17:42:52.061Z,99707.95
2023-05-21T17:45:25.684Z,99708.81
2023-05-21T17:48:13.511Z,99710.47
2023-05-21T17:50:47.569Z,99714.09
2023-05-21T17:53:21.180Z,99710.61
2023-05-21T17:56:11.375Z,99708.74
2023-05-21T17:58:44.825Z,99715.03
2023-05-21T18:01:32.876Z,99716.67
2023-05-21T18:04:09.163Z,99719.44
2023-05-21T18:06:56.835Z,99716.73
2023-05-21T18:09:44.539Z,99711.49
2023-05-21T18:12:18.568Z,99719.51
2023-05-21T18:15:07.485Z,99721.11
2023-05-21T18:17:40.878Z,99720.30
2023-05-21T18:20:28.652Z,99721.02
2023-05-21T18:23:16.257Z,99720.05
2023-05-21T18:26:04.080Z,99716.48
2023-05-21T18:28:37.890Z,99720.11
2023-05-21T18:31:11.384Z,99716.55
2023-05-21T18:33:58.931Z,99713.79
2023-05-21T18:36:35.187Z,99719.21
2023-05-21T18:39:24.932Z,99720.86
2023-05-21T18:42:12.146Z,99717.47
2023-05-21T18:44:50.700Z,99715.64
2023-05-21T18:47:24.988Z,99724.56
2023-05-21T18:50:15.384Z,99713.98
2023-05-21T18:52:48.906Z,99713.30
2023-05-21T18:55:37.376Z,99709.73
2023-05-21T18:58:24.722Z,99706.27
2023-05-21T19:01:12.658Z,99708.95
2023-05-21T19:03:46.206Z,99716.98
2023-05-21T19:06:22.216Z,99716.19
2023-05-21T19:09:11.153Z,99713.55
2023-05-21T19:11:48.158Z,99712.83
2023-05-21T19:14:36.206Z,99708.41
2023-05-21T19:17:09.636Z,99717.30
2023-05-21T19:19:57.506Z,99713.77
2023-05-21T19:22:31.284Z,99713.91
2023-05-21T19:25:19.302Z,99709.52
2023-05-21T19:28:07.035Z,99716.56
2023-05-21T19:30:41.165Z,99707.88
2023-05-21T19:33:28.922Z,99712.26
2023-05-21T19:36:02.539Z,99714.95
2023-05-21T19:38:50.818Z,99712.30
2023-05-21T19:41:24.425Z,99714.95
2023-05-21T19:44:12.125Z,99711.42
2023-05-21T19:47:00.170Z,99711.47
2023-05-21T19:49:33.796Z,99707.97
2023-05-21T19:52:12.366Z,99710.61
2023-05-21T19:55:02.820Z,99720.23
2023-05-21T19:57:50.639Z,99721.98
2023-05-21T20:00:25.852Z,99716.75
2023-05-21T20:02:59.184Z,99717.66
2023-05-21T20:05:32.830Z,99712.39
2023-05-21T20:08:06.616Z,99720.30
2023-05-21T20:10:54.801Z,99718.50
2023-05-21T20:13:28.446Z,99724.66
2023-05-21T20:16:02.201Z,99724.66
2023-05-21T20:18:35.962Z,99721.16
2023-05-21T20:21:09.493Z,99720.30
2023-05-21T20:23:42.780Z,99715.94
2023-05-21T20:26:16.878Z,99714.20
2023-05-21T20:29:06.087Z,99713.29
2023-05-21T20:31:39.631Z,99715.93
2023-05-21T20:34:27.812Z,99708.04
2023-05-21T20:37:15.537Z,99714.19
2023-05-21T20:39:49.106Z,99721.22
2023-05-21T20:42:23.562Z,99713.33
2023-05-21T20:44:58.898Z,99708.06
2023-05-21T20:47:48.090Z,99713.34
2023-05-21T20:50:24.223Z,99712.45
2023-05-21T20:52:58.108Z,99719.48
2023-05-21T20:56:01.824Z,99722.08
2023-05-21T20:58:42.491Z,99726.45
2023-05-21T21:01:31.081Z,99720.34
2023-05-21T21:04:19.112Z,99728.20
2023-05-21T21:06:53.351Z,99729.95
2023-05-21T21:09:40.629Z,99720.32
2023-05-21T21:12:25.394Z,99729.06
2023-05-21T21:15:03.725Z,99724.69
2023-05-21T21:17:51.480Z,99724.69
2023-05-21T21:20:24.930Z,99729.88
2023-05-21T21:23:12.798Z,99729.08
2023-05-21T21:25:46.694Z,99732.50
2023-05-21T21:28:34.177Z,99719.42
2023-05-21T21:31:21.952Z,99719.37
2023-05-21T21:33:55.556Z,99727.23
2023-05-21T21:36:42.971Z,99717.64
2023-05-21T21:39:30.462Z,99720.31
2023-05-21T21:42:04.509Z,99731.63
2023-05-21T21:44:39.440Z,99727.25
2023-05-21T21:47:12.978Z,99728.13
2023-05-21T21:50:00.742Z,99723.77
2023-05-21T21:52:37.028Z,99726.34
2023-05-21T21:55:24.784Z,99719.36
2023-05-21T21:57:58.241Z,99722.83
2023-05-21T22:00:32.056Z,99720.21
2023-05-21T22:03:05.670Z,99714.94
2023-05-21T22:05:54.161Z,99721.10
2023-05-21T22:08:28.846Z,99716.66
2023-05-21T22:11:04.698Z,99706.20
2023-05-21T22:13:53.960Z,99701.86
2023-05-21T22:16:28.442Z,99710.58
2023-05-21T22:19:17.780Z,99704.48
2023-05-21T22:21:52.001Z,99708.84
2023-05-21T22:24:39.680Z,99711.48
2023-05-21T22:27:13.109Z,99714.96
2023-05-21T22:30:00.894Z,99698.36
2023-05-21T22:32:49.484Z,99698.38
2023-05-21T22:35:23.632Z,99707.12
2023-05-21T22:37:57.656Z,99706.25
2023-05-21T22:40:45.587Z,99700.20
2023-05-21T22:43:18.828Z,99698.43
2023-05-21T22:46:06.440Z,99699.33
2023-05-21T22:48:54.567Z,99701.95
2023-05-21T22:51:43.560Z,99705.45
2023-05-21T22:54:16.913Z,99704.55
2023-05-21T22:57:05.297Z,99700.19
2023-05-21T22:59:38.900Z,99699.30
2023-05-21T23:02:26.812Z,99694.94
2023-05-21T23:05:00.480Z,99701.03
2023-05-21T23:07:35.599Z,99693.12
2023-05-21T23:10:23.193Z,99694.92
2023-05-21T23:12:56.539Z,99696.63
2023-05-21T23:15:44.415Z,99691.45
2023-05-21T23:18:18.220Z,99693.11
2023-05-21T23:21:06.691Z,99695.77
2023-05-21T23:23:54.269Z,99698.40
2023-05-21T23:26:41.868Z,99696.64
2023-05-21T23:29:15.189Z,99699.23
2023-05-21T23:32:04.811Z,99698.36
2023-05-21T23:34:38.477Z,99707.93
2023-05-21T23:37:26.245Z,99704.45
2023-05-21T23:40:15.373Z,99698.28
2023-05-21T23:42:48.795Z,99696.48
2023-05-21T23:45:36.537Z,99695.66
2023-05-21T23:48:24.242Z,99700.01
2023-05-21T23:50:57.777Z,99700.80
2023-05-21T23:53:45.491Z,99703.42
2023-05-21T23:56:33.179Z,99705.15
2023-05-21T23:59:06.888Z,99709.45
